createdAt,value
2023-04-30T00:00:39.866Z,0.00
2023-04-30T00:01:30.572Z,0.00
2023-04-30T00:02:21.885Z,0.00
2023-04-30T00:03:12.809Z,0.00
2023-04-30T00:04:04.100Z,0.00
2023-04-30T00:04:54.682Z,0.00
2023-04-30T00:05:45.966Z,0.00
2023-04-30T00:06:37.155Z,0.00
2023-04-30T00:07:28.319Z,0.00
2023-04-30T00:08:19.082Z,0.00
2023-04-30T00:09:09.729Z,0.00
2023-04-30T00:10:00.469Z,0.00
2023-04-30T00:10:51.224Z,0.00
2023-04-30T00:11:41.998Z,0.00
2023-04-30T00:12:32.722Z,0.00
2023-04-30T00:13:23.773Z,0.00
2023-04-30T00:14:14.766Z,0.00
2023-04-30T00:15:05.690Z,0.00
2023-04-30T00:15:56.734Z,0.00
2023-04-30T00:16:48.581Z,0.00
2023-04-30T00:17:39.064Z,0.00
2023-04-30T00:18:30.038Z,0.00
2023-04-30T00:19:20.995Z,0.00
2023-04-30T00:20:11.938Z,0.00
2023-04-30T00:21:03.090Z,0.00
2023-04-30T00:21:54.297Z,0.00
2023-04-30T00:22:45.155Z,0.00
2023-04-30T00:23:36.132Z,0.00
2023-04-30T00:24:27.137Z,0.00
2023-04-30T00:25:17.937Z,0.00
2023-04-30T00:26:08.749Z,0.00
2023-04-30T00:27:00.009Z,0.00
2023-04-30T00:27:50.803Z,0.00
2023-04-30T00:28:41.985Z,0.00
2023-04-30T00:29:33.248Z,0.00
2023-04-30T00:30:24.310Z,0.00
2023-04-30T00:31:15.325Z,0.00
2023-04-30T00:32:06.414Z,0.00
2023-04-30T00:32:57.367Z,0.00
2023-04-30T00:33:48.402Z,0.00
2023-04-30T00:34:39.333Z,0.00
2023-04-30T00:35:30.661Z,0.00
2023-04-30T00:36:21.301Z,0.00
2023-04-30T00:37:12.568Z,0.00
2023-04-30T00:38:03.363Z,0.00
2023-04-30T00:38:54.379Z,0.00
2023-04-30T00:39:45.449Z,0.00
2023-04-30T00:40:36.159Z,0.00
2023-04-30T00:41:27.346Z,0.00
2023-04-30T00:42:18.226Z,0.00
2023-04-30T00:43:09.241Z,0.00
2023-04-30T00:44:00.241Z,0.00
2023-04-30T00:44:51.351Z,0.00
2023-04-30T00:45:42.182Z,0.00
2023-04-30T00:46:33.229Z,0.00
2023-04-30T00:47:24.166Z,0.00
2023-04-30T00:48:15.095Z,0.00
2023-04-30T00:49:06.071Z,0.00
2023-04-30T00:49:57.340Z,0.00
2023-04-30T00:50:48.341Z,0.00
2023-04-30T00:51:39.237Z,0.00
2023-04-30T00:52:30.400Z,0.00
2023-04-30T00:53:21.403Z,0.00
2023-04-30T00:54:12.432Z,0.00
2023-04-30T00:55:03.528Z,0.00
2023-04-30T00:55:54.782Z,0.00
2023-04-30T00:56:45.906Z,0.00
2023-04-30T00:57:36.973Z,0.00
2023-04-30T00:58:28.069Z,0.00
2023-04-30T00:59:19.287Z,0.00
2023-04-30T01:00:10.276Z,0.00
2023-04-30T01:01:01.497Z,0.00
2023-04-30T01:01:52.475Z,0.00
2023-04-30T01:02:43.767Z,0.00
2023-04-30T01:03:34.862Z,0.00
2023-04-30T01:04:25.760Z,0.00
2023-04-30T01:05:16.781Z,0.00
2023-04-30T01:06:07.816Z,0.00
2023-04-30T01:06:58.743Z,0.00
2023-04-30T01:07:49.504Z,0.00
2023-04-30T01:08:40.684Z,0.00
2023-04-30T01:09:31.869Z,0.00
2023-04-30T01:10:22.852Z,0.00
2023-04-30T01:11:13.887Z,0.00
2023-04-30T01:12:04.944Z,0.00
2023-04-30T01:12:56.038Z,0.00
2023-04-30T01:13:47.120Z,0.00
2023-04-30T01:14:38.420Z,0.00
2023-04-30T01:15:29.436Z,0.00
2023-04-30T01:16:20.531Z,0.00
2023-04-30T01:17:11.737Z,0.00
2023-04-30T01:18:03.016Z,0.00
2023-04-30T01:18:54.059Z,0.00
2023-04-30T01:19:45.137Z,0.00
2023-04-30T01:20:36.418Z,0.00
2023-04-30T01:21:27.351Z,0.00
2023-04-30T01:22:18.224Z,0.00
2023-04-30T01:23:09.249Z,0.00
2023-04-30T01:24:00.427Z,0.00
2023-04-30T01:24:51.078Z,0.00
2023-04-30T01:25:42.308Z,0.00
2023-04-30T01:26:33.290Z,0.00
2023-04-30T01:27:24.195Z,0.00
2023-04-30T01:28:15.151Z,0.00
2023-04-30T01:29:06.222Z,0.00
2023-04-30T01:29:57.303Z,0.00
2023-04-30T01:30:48.457Z,0.00
2023-04-30T01:31:39.635Z,0.00
2023-04-30T01:32:30.805Z,0.00
2023-04-30T01:33:21.690Z,0.00
2023-04-30T01:34:12.608Z,0.00
2023-04-30T01:35:03.569Z,0.00
2023-04-30T01:35:54.541Z,0.00
2023-04-30T01:36:45.578Z,0.00
2023-04-30T01:37:36.839Z,0.00
2023-04-30T01:38:28.051Z,0.00
2023-04-30T01:39:19.114Z,0.00
2023-04-30T01:40:09.899Z,0.00
2023-04-30T01:41:01.079Z,0.00
2023-04-30T01:41:51.974Z,0.00
2023-04-30T01:42:43.191Z,0.00
2023-04-30T01:43:33.981Z,0.00
2023-04-30T01:44:24.819Z,0.00
2023-04-30T01:45:15.537Z,0.00
2023-04-30T01:46:06.332Z,0.00
2023-04-30T01:48:18.017Z,0.00
2023-04-30T01:49:09.199Z,0.00
2023-04-30T01:49:59.922Z,0.00
2023-04-30T01:50:50.786Z,0.00
2023-04-30T01:51:41.966Z,0.00
2023-04-30T01:52:32.983Z,0.00
2023-04-30T01:53:23.724Z,0.00
2023-04-30T01:54:14.462Z,0.00
2023-04-30T01:55:05.699Z,0.00
2023-04-30T01:55:56.787Z,0.00
2023-04-30T01:56:47.837Z,0.00
2023-04-30T01:57:38.751Z,0.00
2023-04-30T01:58:29.727Z,0.00
2023-04-30T01:59:20.684Z,0.00
2023-04-30T02:00:11.737Z,0.00
2023-04-30T02:01:02.572Z,0.00
2023-04-30T02:01:53.515Z,0.00
2023-04-30T02:02:44.471Z,0.00
2023-04-30T02:03:35.464Z,0.00
2023-04-30T02:04:26.317Z,0.00
2023-04-30T02:05:18.196Z,0.00
2023-04-30T02:06:08.094Z,0.00
2023-04-30T02:06:59.041Z,0.00
2023-04-30T02:07:50.110Z,0.00
2023-04-30T02:08:40.748Z,0.00
2023-04-30T02:09:31.611Z,0.00
2023-04-30T02:10:22.597Z,0.00
2023-04-30T02:11:13.472Z,0.00
2023-04-30T02:12:04.666Z,0.00
2023-04-30T02:12:55.774Z,0.00
2023-04-30T02:13:46.782Z,0.00
2023-04-30T02:14:37.464Z,0.00
2023-04-30T02:15:28.562Z,0.00
2023-04-30T02:16:19.374Z,0.00
2023-04-30T02:17:10.569Z,0.00
2023-04-30T02:18:01.235Z,0.00
2023-04-30T02:18:52.412Z,0.00
2023-04-30T02:19:43.255Z,0.00
2023-04-30T02:20:34.282Z,0.00
2023-04-30T02:21:25.194Z,0.00
2023-04-30T02:22:16.288Z,0.00
2023-04-30T02:23:06.985Z,0.00
2023-04-30T02:23:58.039Z,0.00
2023-04-30T02:24:49.179Z,0.00
2023-04-30T02:25:39.835Z,0.00
2023-04-30T02:26:30.492Z,0.00
2023-04-30T02:27:21.550Z,0.00
2023-04-30T02:28:12.719Z,0.00
2023-04-30T02:29:03.512Z,0.00
2023-04-30T02:29:54.826Z,0.00
2023-04-30T02:30:45.712Z,0.00
2023-04-30T02:31:36.895Z,0.00
2023-04-30T02:32:27.825Z,0.00
2023-04-30T02:33:18.713Z,0.00
2023-04-30T02:34:09.446Z,0.00
2023-04-30T02:35:00.620Z,0.00
2023-04-30T02:35:51.688Z,0.00
2023-04-30T02:36:42.776Z,0.00
2023-04-30T02:37:33.433Z,0.00
2023-04-30T02:38:24.163Z,0.00
2023-04-30T02:39:14.822Z,0.00
2023-04-30T02:40:05.479Z,0.00
2023-04-30T02:40:56.147Z,0.00
2023-04-30T02:41:46.922Z,0.00
2023-04-30T02:42:38.233Z,0.00
2023-04-30T02:43:28.952Z,0.00
2023-04-30T02:44:19.715Z,0.00
2023-04-30T02:45:10.430Z,0.00
2023-04-30T02:46:01.221Z,0.00
2023-04-30T02:46:51.981Z,0.00
2023-04-30T02:47:43.422Z,0.00
2023-04-30T02:48:33.497Z,0.00
2023-04-30T02:49:24.221Z,0.00
2023-04-30T02:50:14.949Z,0.00
2023-04-30T02:51:05.721Z,0.00
2023-04-30T02:51:56.435Z,0.00
2023-04-30T02:52:47.259Z,0.00
2023-04-30T02:53:38.022Z,0.00
2023-04-30T02:54:28.780Z,0.00
2023-04-30T02:55:19.542Z,0.00
2023-04-30T02:56:10.307Z,0.00
2023-04-30T02:57:01.068Z,0.00
2023-04-30T02:57:51.845Z,0.00
2023-04-30T02:58:42.635Z,0.00
2023-04-30T02:59:33.429Z,0.00
2023-04-30T03:00:24.176Z,0.00
2023-04-30T03:01:14.979Z,0.00
2023-04-30T03:02:05.762Z,0.00
2023-04-30T03:02:56.544Z,0.00
2023-04-30T03:03:47.538Z,0.00
2023-04-30T03:04:39.211Z,0.00
2023-04-30T03:05:29.298Z,0.00
2023-04-30T03:06:20.097Z,0.00
2023-04-30T03:07:10.805Z,0.00
2023-04-30T03:08:01.559Z,0.00
2023-04-30T03:08:52.335Z,0.00
2023-04-30T03:09:43.134Z,0.00
2023-04-30T03:10:33.882Z,0.00
2023-04-30T03:11:24.941Z,0.00
2023-04-30T03:12:15.803Z,0.00
2023-04-30T03:13:06.696Z,0.00
2023-04-30T03:13:57.546Z,0.00
2023-04-30T03:14:48.419Z,0.00
2023-04-30T03:15:39.285Z,0.00
2023-04-30T03:16:30.186Z,0.00
2023-04-30T03:17:21.204Z,0.00
2023-04-30T03:18:12.092Z,0.00
2023-04-30T03:19:02.887Z,0.00
2023-04-30T03:19:53.929Z,0.00
2023-04-30T03:20:44.700Z,0.00
2023-04-30T03:21:36.042Z,0.00
2023-04-30T03:22:26.842Z,0.00
2023-04-30T03:23:17.646Z,0.00
2023-04-30T03:24:08.621Z,0.00
2023-04-30T03:24:59.413Z,0.00
2023-04-30T03:25:50.297Z,0.00
2023-04-30T03:26:41.150Z,0.00
2023-04-30T03:27:32.033Z,0.00
2023-04-30T03:28:22.920Z,0.00
2023-04-30T03:29:13.774Z,0.00
2023-04-30T03:30:04.620Z,0.00
2023-04-30T03:30:55.490Z,0.00
2023-04-30T03:31:46.382Z,0.00
2023-04-30T03:32:37.278Z,0.00
2023-04-30T03:33:28.154Z,0.00
2023-04-30T03:34:19.031Z,0.00
2023-04-30T03:35:09.910Z,0.00
2023-04-30T03:36:00.762Z,0.00
2023-04-30T03:36:51.673Z,0.00
2023-04-30T03:37:42.602Z,0.00
2023-04-30T03:38:33.498Z,0.00
2023-04-30T03:39:24.382Z,0.00
2023-04-30T03:40:15.251Z,0.00
2023-04-30T03:41:06.135Z,0.00
2023-04-30T03:41:57.025Z,0.00
2023-04-30T03:42:49.430Z,0.00
2023-04-30T03:43:39.063Z,0.00
2023-04-30T03:44:29.957Z,0.00
2023-04-30T03:45:20.830Z,0.00
2023-04-30T03:46:11.734Z,0.00
2023-04-30T03:47:02.592Z,0.00
2023-04-30T03:47:53.498Z,0.00
2023-04-30T03:48:44.355Z,0.00
2023-04-30T03:49:35.240Z,0.00
2023-04-30T03:50:26.145Z,0.00
2023-04-30T03:51:17.008Z,0.00
2023-04-30T03:52:07.901Z,0.00
2023-04-30T03:52:58.817Z,0.00
2023-04-30T03:53:49.746Z,0.00
2023-04-30T03:54:40.657Z,0.00
2023-04-30T03:55:31.529Z,0.00
2023-04-30T03:56:22.501Z,0.00
2023-04-30T03:57:13.420Z,0.00
2023-04-30T03:58:04.303Z,0.00
2023-04-30T03:58:55.185Z,0.00
2023-04-30T03:59:46.056Z,0.00
2023-04-30T04:00:36.943Z,0.00
2023-04-30T04:01:27.818Z,0.00
2023-04-30T04:02:18.799Z,0.00
2023-04-30T04:03:09.699Z,0.00
2023-04-30T04:04:00.638Z,5.62
2023-04-30T04:04:51.525Z,5.62
2023-04-30T04:05:42.412Z,5.62
2023-04-30T04:06:33.358Z,5.62
2023-04-30T04:07:24.180Z,5.62
2023-04-30T04:08:15.088Z,5.62
2023-04-30T04:09:05.984Z,5.62
2023-04-30T04:09:56.886Z,5.62
2023-04-30T04:10:47.770Z,5.62
2023-04-30T04:11:38.682Z,5.62
2023-04-30T04:12:29.596Z,5.62
2023-04-30T04:13:20.472Z,5.62
2023-04-30T04:14:11.381Z,5.62
2023-04-30T04:15:02.338Z,5.62
2023-04-30T04:15:53.286Z,5.62
2023-04-30T04:16:44.193Z,5.62
2023-04-30T04:17:35.146Z,5.62
2023-04-30T04:18:25.998Z,5.62
2023-04-30T04:19:16.896Z,5.62
2023-04-30T04:20:07.798Z,5.62
2023-04-30T04:20:58.710Z,5.62
2023-04-30T04:21:49.585Z,5.62
2023-04-30T04:22:40.483Z,5.62
2023-04-30T04:23:31.415Z,5.62
2023-04-30T04:24:22.292Z,5.62
2023-04-30T04:25:13.174Z,5.62
2023-04-30T04:26:04.068Z,11.25
2023-04-30T04:26:54.975Z,11.25
2023-04-30T04:27:45.863Z,11.25
2023-04-30T04:28:36.811Z,11.25
2023-04-30T04:29:27.732Z,11.25
2023-04-30T04:30:18.631Z,11.25
2023-04-30T04:31:09.531Z,11.25
2023-04-30T04:32:00.551Z,11.25
2023-04-30T04:32:51.498Z,11.25
2023-04-30T04:33:42.429Z,11.25
2023-04-30T04:34:33.349Z,11.25
2023-04-30T04:35:24.282Z,11.25
2023-04-30T04:36:15.200Z,11.25
2023-04-30T04:37:06.095Z,11.25
2023-04-30T04:37:56.984Z,11.25
2023-04-30T04:38:47.904Z,11.25
2023-04-30T04:39:38.815Z,11.25
2023-04-30T04:40:31.154Z,11.25
2023-04-30T04:41:20.710Z,11.25
2023-04-30T04:42:11.639Z,11.25
2023-04-30T04:43:02.535Z,11.25
2023-04-30T04:43:53.447Z,11.25
2023-04-30T04:44:44.354Z,11.25
2023-04-30T04:45:35.294Z,11.25
2023-04-30T04:46:26.285Z,11.25
2023-04-30T04:47:17.211Z,11.25
2023-04-30T04:48:08.119Z,16.88
2023-04-30T04:48:59.043Z,16.88
2023-04-30T04:49:49.987Z,16.88
2023-04-30T04:50:40.896Z,16.88
2023-04-30T04:51:31.842Z,16.88
2023-04-30T04:52:22.777Z,16.88
2023-04-30T04:53:13.679Z,16.88
2023-04-30T04:54:04.611Z,16.88
2023-04-30T04:54:55.504Z,16.88
2023-04-30T04:55:46.434Z,16.88
2023-04-30T04:56:37.333Z,16.88
2023-04-30T04:57:28.231Z,16.88
2023-04-30T04:58:19.137Z,16.88
2023-04-30T04:59:10.064Z,16.88
2023-04-30T05:00:00.966Z,16.88
2023-04-30T05:00:51.861Z,16.88
2023-04-30T05:01:42.792Z,16.88
2023-04-30T05:02:33.766Z,22.50
2023-04-30T05:03:24.767Z,22.50
2023-04-30T05:04:15.642Z,22.50
2023-04-30T05:05:06.569Z,22.50
2023-04-30T05:05:57.535Z,22.50
2023-04-30T05:06:48.421Z,22.50
2023-04-30T05:07:39.296Z,22.50
2023-04-30T05:08:30.201Z,22.50
2023-04-30T05:09:21.104Z,22.50
2023-04-30T05:10:12.701Z,22.50
2023-04-30T05:11:03.025Z,22.50
2023-04-30T05:11:53.915Z,22.50
2023-04-30T05:12:44.844Z,22.50
2023-04-30T05:13:35.756Z,22.50
2023-04-30T05:14:26.673Z,22.50
2023-04-30T05:15:17.591Z,22.50
2023-04-30T05:16:08.539Z,28.12
2023-04-30T05:16:59.422Z,28.12
2023-04-30T05:17:50.368Z,28.12
2023-04-30T05:18:41.286Z,28.12
2023-04-30T05:19:32.187Z,28.12
2023-04-30T05:20:23.107Z,28.12
2023-04-30T05:21:14.015Z,28.12
2023-04-30T05:22:05.070Z,28.12
2023-04-30T05:22:55.973Z,33.75
2023-04-30T05:23:46.897Z,33.75
2023-04-30T05:24:37.824Z,33.75
2023-04-30T05:25:28.744Z,33.75
2023-04-30T05:26:19.695Z,33.75
2023-04-30T05:27:10.618Z,33.75
2023-04-30T05:28:01.530Z,28.12
2023-04-30T05:28:52.490Z,28.12
2023-04-30T05:29:43.353Z,28.12
2023-04-30T05:30:34.254Z,33.75
2023-04-30T05:31:25.243Z,33.75
2023-04-30T05:32:16.439Z,33.75
2023-04-30T05:33:07.340Z,33.75
2023-04-30T05:33:58.201Z,33.75
2023-04-30T05:34:49.109Z,33.75
2023-04-30T05:35:40.010Z,33.75
2023-04-30T05:36:30.955Z,33.75
2023-04-30T05:37:21.889Z,33.75
2023-04-30T05:38:12.774Z,33.75
2023-04-30T05:39:03.668Z,33.75
2023-04-30T05:39:54.857Z,33.75
2023-04-30T05:40:45.233Z,28.12
2023-04-30T05:41:36.118Z,28.12
2023-04-30T05:42:27.037Z,28.12
2023-04-30T05:43:17.953Z,28.12
2023-04-30T05:44:08.900Z,28.12
2023-04-30T05:44:59.793Z,22.50
2023-04-30T05:45:50.766Z,22.50
2023-04-30T05:46:41.628Z,22.50
2023-04-30T05:47:32.594Z,22.50
2023-04-30T05:48:23.460Z,22.50
2023-04-30T05:49:14.388Z,22.50
2023-04-30T05:50:05.318Z,22.50
2023-04-30T05:50:56.235Z,22.50
2023-04-30T05:51:47.135Z,22.50
2023-04-30T05:52:38.065Z,22.50
2023-04-30T05:53:28.980Z,22.50
2023-04-30T05:54:19.910Z,22.50
2023-04-30T05:55:10.815Z,22.50
2023-04-30T05:56:01.724Z,22.50
2023-04-30T05:56:52.635Z,22.50
2023-04-30T05:57:43.561Z,22.50
2023-04-30T05:58:34.444Z,22.50
2023-04-30T05:59:25.447Z,22.50
2023-04-30T06:00:16.336Z,22.50
2023-04-30T06:01:07.232Z,22.50
2023-04-30T06:01:58.163Z,22.50
2023-04-30T06:02:49.086Z,22.50
2023-04-30T06:03:40.030Z,22.50
2023-04-30T06:04:30.959Z,22.50
2023-04-30T06:05:21.972Z,22.50
2023-04-30T06:06:12.939Z,22.50
2023-04-30T06:07:03.814Z,22.50
2023-04-30T06:07:54.834Z,22.50
2023-04-30T06:08:45.837Z,22.50
2023-04-30T06:09:36.726Z,22.50
2023-04-30T06:10:27.713Z,22.50
2023-04-30T06:11:18.553Z,22.50
2023-04-30T06:12:09.461Z,22.50
2023-04-30T06:13:00.372Z,22.50
2023-04-30T06:13:51.290Z,22.50
2023-04-30T06:14:42.221Z,22.50
2023-04-30T06:15:33.130Z,22.50
2023-04-30T06:16:24.034Z,22.50
2023-04-30T06:17:14.955Z,22.50
2023-04-30T06:18:05.888Z,22.50
2023-04-30T06:18:56.777Z,22.50
2023-04-30T06:19:47.691Z,22.50
2023-04-30T06:20:38.640Z,22.50
2023-04-30T06:21:29.557Z,22.50
2023-04-30T06:22:20.453Z,22.50
2023-04-30T06:23:11.481Z,22.50
2023-04-30T06:24:02.318Z,22.50
2023-04-30T06:24:53.230Z,22.50
2023-04-30T06:25:44.135Z,22.50
2023-04-30T06:26:36.348Z,22.50
2023-04-30T06:27:26.166Z,11.25
2023-04-30T06:28:17.099Z,16.88
2023-04-30T06:29:08.000Z,16.88
2023-04-30T06:29:58.911Z,16.88
2023-04-30T06:30:49.812Z,16.88
2023-04-30T06:31:40.764Z,16.88
2023-04-30T06:32:31.665Z,11.25
2023-04-30T06:33:22.545Z,28.12
2023-04-30T06:34:13.469Z,28.12
2023-04-30T06:35:04.363Z,28.12
2023-04-30T06:35:55.273Z,28.12
2023-04-30T06:36:46.169Z,28.12
2023-04-30T06:37:37.082Z,28.12
2023-04-30T06:38:28.042Z,28.12
2023-04-30T06:39:18.950Z,28.12
2023-04-30T06:40:09.892Z,28.12
2023-04-30T06:41:00.818Z,28.12
2023-04-30T06:41:51.695Z,28.12
2023-04-30T06:42:42.633Z,28.12
2023-04-30T06:43:33.539Z,28.12
2023-04-30T06:44:24.461Z,28.12
2023-04-30T06:45:15.426Z,28.12
2023-04-30T06:46:06.346Z,16.88
2023-04-30T06:46:57.232Z,16.88
2023-04-30T06:47:48.160Z,16.88
2023-04-30T06:48:39.068Z,16.88
2023-04-30T06:49:29.976Z,28.12
2023-04-30T06:50:20.880Z,28.12
2023-04-30T06:51:11.792Z,28.12
2023-04-30T06:52:02.697Z,28.12
2023-04-30T06:52:53.619Z,28.12
2023-04-30T06:53:44.631Z,28.12
2023-04-30T06:54:35.470Z,28.12
2023-04-30T06:55:26.368Z,28.12
2023-04-30T06:56:17.285Z,28.12
2023-04-30T06:57:08.242Z,28.12
2023-04-30T06:57:59.177Z,33.75
2023-04-30T06:58:50.088Z,33.75
2023-04-30T06:59:41.006Z,33.75
2023-04-30T07:00:31.963Z,33.75
2023-04-30T07:01:22.916Z,33.75
2023-04-30T07:02:13.803Z,33.75
2023-04-30T07:03:04.980Z,33.75
2023-04-30T07:03:56.194Z,33.75
2023-04-30T07:04:47.113Z,33.75
2023-04-30T07:05:38.036Z,33.75
2023-04-30T07:06:29.003Z,33.75
2023-04-30T07:07:19.896Z,33.75
2023-04-30T07:08:10.792Z,33.75
2023-04-30T07:09:03.216Z,33.75
2023-04-30T07:09:53.271Z,33.75
2023-04-30T07:10:43.716Z,33.75
2023-04-30T07:11:34.622Z,33.75
2023-04-30T07:12:25.530Z,33.75
2023-04-30T07:13:16.456Z,39.38
2023-04-30T07:14:07.334Z,39.38
2023-04-30T07:14:58.288Z,45.00
2023-04-30T07:15:49.237Z,45.00
2023-04-30T07:16:40.116Z,50.62
2023-04-30T07:17:31.090Z,56.25
2023-04-30T07:18:21.978Z,56.25
2023-04-30T07:19:12.889Z,56.25
2023-04-30T07:20:03.808Z,56.25
2023-04-30T07:20:54.716Z,56.25
2023-04-30T07:21:45.626Z,61.88
2023-04-30T07:22:36.549Z,61.88
2023-04-30T07:23:29.876Z,67.50
2023-04-30T07:24:18.436Z,67.50
2023-04-30T07:25:09.312Z,61.88
2023-04-30T07:26:00.226Z,61.88
2023-04-30T07:26:51.132Z,67.50
2023-04-30T07:27:42.025Z,61.88
2023-04-30T07:28:32.944Z,61.88
2023-04-30T07:29:23.856Z,56.25
2023-04-30T07:30:14.798Z,56.25
2023-04-30T07:31:05.742Z,50.62
2023-04-30T07:31:56.658Z,50.62
2023-04-30T07:32:47.580Z,50.62
2023-04-30T07:33:38.463Z,45.00
2023-04-30T07:34:29.375Z,45.00
2023-04-30T07:35:20.291Z,45.00
2023-04-30T07:36:11.225Z,22.50
2023-04-30T07:37:02.122Z,45.00
2023-04-30T07:37:53.034Z,39.38
2023-04-30T07:38:43.929Z,11.25
2023-04-30T07:39:34.854Z,45.00
2023-04-30T07:40:35.351Z,45.00
2023-04-30T07:41:17.652Z,45.00
2023-04-30T07:42:07.357Z,45.00
2023-04-30T07:42:58.264Z,45.00
2023-04-30T07:43:49.156Z,45.00
2023-04-30T07:44:40.079Z,45.00
2023-04-30T07:45:31.045Z,45.00
2023-04-30T07:46:21.975Z,45.00
2023-04-30T07:47:12.842Z,45.00
2023-04-30T07:48:03.826Z,45.00
2023-04-30T07:48:54.723Z,45.00
2023-04-30T07:49:45.631Z,45.00
2023-04-30T07:50:36.558Z,45.00
2023-04-30T07:51:27.453Z,45.00
2023-04-30T07:52:18.368Z,45.00
2023-04-30T07:53:09.291Z,45.00
2023-04-30T07:54:00.243Z,45.00
2023-04-30T07:54:51.144Z,45.00
2023-04-30T07:55:42.028Z,45.00
2023-04-30T07:56:32.949Z,45.00
2023-04-30T07:57:23.862Z,45.00
2023-04-30T07:58:14.755Z,50.62
2023-04-30T07:59:05.646Z,50.62
2023-04-30T07:59:56.822Z,50.62
2023-04-30T08:00:47.268Z,50.62
2023-04-30T08:01:38.178Z,50.62
2023-04-30T08:02:29.180Z,50.62
2023-04-30T08:03:20.166Z,50.62
2023-04-30T08:04:11.279Z,50.62
2023-04-30T08:05:02.168Z,50.62
2023-04-30T08:05:53.051Z,56.25
2023-04-30T08:06:43.979Z,56.25
2023-04-30T08:07:34.897Z,56.25
2023-04-30T08:08:25.783Z,56.25
2023-04-30T08:09:16.744Z,56.25
2023-04-30T08:10:07.643Z,56.25
2023-04-30T08:10:58.540Z,56.25
2023-04-30T08:11:49.484Z,56.25
2023-04-30T08:12:40.387Z,56.25
2023-04-30T08:13:31.311Z,56.25
2023-04-30T08:14:22.242Z,56.25
2023-04-30T08:15:13.169Z,56.25
2023-04-30T08:16:04.112Z,56.25
2023-04-30T08:16:55.187Z,56.25
2023-04-30T08:17:46.071Z,50.62
2023-04-30T08:18:36.943Z,56.25
2023-04-30T08:19:27.856Z,56.25
2023-04-30T08:20:18.792Z,56.25
2023-04-30T08:21:09.709Z,56.25
2023-04-30T08:22:01.246Z,61.88
2023-04-30T08:22:51.532Z,56.25
2023-04-30T08:23:42.440Z,39.38
2023-04-30T08:24:33.340Z,61.88
2023-04-30T08:25:24.393Z,11.25
2023-04-30T08:26:15.241Z,73.12
2023-04-30T08:27:06.155Z,73.12
2023-04-30T08:27:57.098Z,73.12
2023-04-30T08:28:48.048Z,73.12
2023-04-30T08:29:38.965Z,67.50
2023-04-30T08:30:29.902Z,61.88
2023-04-30T08:31:20.866Z,61.88
2023-04-30T08:32:11.890Z,61.88
2023-04-30T08:33:02.750Z,61.88
2023-04-30T08:33:53.675Z,61.88
2023-04-30T08:34:44.571Z,67.50
2023-04-30T08:35:35.493Z,67.50
2023-04-30T08:36:26.415Z,61.88
2023-04-30T08:37:17.323Z,73.12
2023-04-30T08:38:08.238Z,78.75
2023-04-30T08:38:59.165Z,78.75
2023-04-30T08:39:50.079Z,84.38
2023-04-30T08:41:31.962Z,84.38
2023-04-30T08:42:22.845Z,84.38
2023-04-30T08:43:13.793Z,84.38
2023-04-30T08:44:06.926Z,78.75
2023-04-30T08:44:55.457Z,78.75
2023-04-30T08:45:46.418Z,78.75
2023-04-30T08:46:37.368Z,78.75
2023-04-30T08:47:28.369Z,78.75
2023-04-30T08:48:19.285Z,78.75
2023-04-30T08:49:10.182Z,73.12
2023-04-30T08:50:01.103Z,73.12
2023-04-30T08:50:52.031Z,84.38
2023-04-30T08:51:42.951Z,73.12
2023-04-30T08:52:33.883Z,78.75
2023-04-30T08:53:24.795Z,61.88
2023-04-30T08:54:15.711Z,56.25
2023-04-30T08:55:06.622Z,50.62
2023-04-30T08:55:57.546Z,50.62
2023-04-30T08:56:48.462Z,67.50
2023-04-30T08:57:39.365Z,78.75
2023-04-30T08:58:30.281Z,73.12
2023-04-30T08:59:21.224Z,84.38
2023-04-30T09:00:12.128Z,90.00
2023-04-30T09:01:03.838Z,95.62
2023-04-30T09:01:54.198Z,106.88
2023-04-30T09:02:45.151Z,45.00
2023-04-30T09:03:36.171Z,50.62
2023-04-30T09:04:27.056Z,95.62
2023-04-30T09:05:17.968Z,95.62
2023-04-30T09:06:08.909Z,95.62
2023-04-30T09:07:00.513Z,95.62
2023-04-30T09:08:02.540Z,95.62
2023-04-30T09:08:42.773Z,95.62
2023-04-30T09:09:32.476Z,101.25
2023-04-30T09:10:23.418Z,101.25
2023-04-30T09:11:14.375Z,95.62
2023-04-30T09:12:05.285Z,101.25
2023-04-30T09:12:56.212Z,101.25
2023-04-30T09:13:47.159Z,95.62
2023-04-30T09:14:38.097Z,101.25
2023-04-30T09:15:29.056Z,95.62
2023-04-30T09:16:20.013Z,95.62
2023-04-30T09:17:10.907Z,101.25
2023-04-30T09:18:01.851Z,95.62
2023-04-30T09:18:52.752Z,95.62
2023-04-30T09:19:43.674Z,78.75
2023-04-30T09:20:34.587Z,95.62
2023-04-30T09:21:25.506Z,95.62
2023-04-30T09:22:16.479Z,78.75
2023-04-30T09:23:07.382Z,95.62
2023-04-30T09:23:58.295Z,95.62
2023-04-30T09:24:49.230Z,95.62
2023-04-30T09:25:40.162Z,95.62
2023-04-30T09:26:31.090Z,95.62
2023-04-30T09:27:22.003Z,95.62
2023-04-30T09:28:13.173Z,101.25
2023-04-30T09:29:04.131Z,101.25
2023-04-30T09:29:55.331Z,106.88
2023-04-30T09:30:45.746Z,101.25
2023-04-30T09:31:36.884Z,101.25
2023-04-30T09:32:27.841Z,101.25
2023-04-30T09:33:18.736Z,73.12
2023-04-30T09:34:09.641Z,73.12
2023-04-30T09:35:00.613Z,101.25
2023-04-30T09:35:51.516Z,95.62
2023-04-30T09:36:42.452Z,95.62
2023-04-30T09:37:33.377Z,101.25
2023-04-30T09:38:24.292Z,50.62
2023-04-30T09:39:16.214Z,101.25
2023-04-30T09:40:05.991Z,95.62
2023-04-30T09:40:56.900Z,106.88
2023-04-30T09:41:48.293Z,101.25
2023-04-30T09:42:38.594Z,101.25
2023-04-30T09:43:29.587Z,95.62
2023-04-30T09:44:20.468Z,101.25
2023-04-30T09:45:11.410Z,90.00
2023-04-30T09:46:02.347Z,101.25
2023-04-30T09:46:53.374Z,106.88
2023-04-30T09:47:44.290Z,101.25
2023-04-30T09:48:35.240Z,101.25
2023-04-30T09:49:26.135Z,106.88
2023-04-30T09:50:17.071Z,112.50
2023-04-30T09:51:08.019Z,112.50
2023-04-30T09:51:58.975Z,112.50
2023-04-30T09:52:49.918Z,112.50
2023-04-30T09:53:41.422Z,112.50
2023-04-30T09:54:31.713Z,112.50
2023-04-30T09:55:22.649Z,118.12
2023-04-30T09:56:13.578Z,101.25
2023-04-30T09:57:04.530Z,101.25
2023-04-30T09:57:55.440Z,95.62
2023-04-30T09:58:46.484Z,95.62
2023-04-30T09:59:37.423Z,95.62
2023-04-30T10:00:28.414Z,95.62
2023-04-30T10:01:19.360Z,39.38
2023-04-30T10:02:10.240Z,61.88
2023-04-30T10:03:01.219Z,84.38
2023-04-30T10:03:52.111Z,61.88
2023-04-30T10:04:42.990Z,67.50
2023-04-30T10:05:33.884Z,67.50
2023-04-30T10:06:24.835Z,50.62
2023-04-30T10:07:17.073Z,50.62
2023-04-30T10:08:06.606Z,56.25
2023-04-30T10:08:57.545Z,39.38
2023-04-30T10:09:48.446Z,95.62
2023-04-30T10:10:39.374Z,95.62
2023-04-30T10:11:30.283Z,95.62
2023-04-30T10:12:21.236Z,95.62
2023-04-30T10:13:12.127Z,95.62
2023-04-30T10:14:03.051Z,95.62
2023-04-30T10:14:53.971Z,95.62
2023-04-30T10:15:44.880Z,95.62
2023-04-30T10:16:35.837Z,95.62
2023-04-30T10:17:26.779Z,95.62
2023-04-30T10:18:17.686Z,90.00
2023-04-30T10:19:08.622Z,90.00
2023-04-30T10:19:59.544Z,90.00
2023-04-30T10:20:50.476Z,90.00
2023-04-30T10:21:41.396Z,90.00
2023-04-30T10:22:32.329Z,90.00
2023-04-30T10:23:23.286Z,90.00
2023-04-30T10:24:14.200Z,90.00
2023-04-30T10:25:05.118Z,90.00
2023-04-30T10:25:56.040Z,90.00
2023-04-30T10:26:46.976Z,84.38
2023-04-30T10:27:37.978Z,84.38
2023-04-30T10:28:28.825Z,84.38
2023-04-30T10:29:19.759Z,84.38
2023-04-30T10:30:10.656Z,84.38
2023-04-30T10:31:01.601Z,84.38
2023-04-30T10:31:52.559Z,84.38
2023-04-30T10:32:43.572Z,84.38
2023-04-30T10:33:34.457Z,84.38
2023-04-30T10:34:25.354Z,84.38
2023-04-30T10:35:16.265Z,90.00
2023-04-30T10:36:07.194Z,78.75
2023-04-30T10:36:58.107Z,78.75
2023-04-30T10:37:49.094Z,78.75
2023-04-30T10:38:40.057Z,78.75
2023-04-30T10:39:30.973Z,78.75
2023-04-30T10:40:21.882Z,78.75
2023-04-30T10:41:12.811Z,78.75
2023-04-30T10:42:03.724Z,78.75
2023-04-30T10:42:54.782Z,78.75
2023-04-30T10:43:45.628Z,78.75
2023-04-30T10:44:36.547Z,78.75
2023-04-30T10:45:27.471Z,73.12
2023-04-30T10:46:18.550Z,73.12
2023-04-30T10:47:09.434Z,73.12
2023-04-30T10:48:00.376Z,73.12
2023-04-30T10:48:51.287Z,73.12
2023-04-30T10:49:42.180Z,73.12
2023-04-30T10:50:33.101Z,73.12
2023-04-30T10:51:24.010Z,73.12
2023-04-30T10:52:14.912Z,73.12
2023-04-30T10:53:05.836Z,73.12
2023-04-30T10:53:56.789Z,73.12
2023-04-30T10:54:47.687Z,33.75
2023-04-30T10:55:38.610Z,50.62
2023-04-30T10:56:29.539Z,73.12
2023-04-30T10:57:20.437Z,135.00
2023-04-30T10:58:11.419Z,140.62
2023-04-30T10:59:02.347Z,146.25
2023-04-30T10:59:53.560Z,146.25
2023-04-30T11:00:45.000Z,140.62
2023-04-30T11:01:34.770Z,118.12
2023-04-30T11:02:25.712Z,140.62
2023-04-30T11:03:16.618Z,129.38
2023-04-30T11:04:07.563Z,95.62
2023-04-30T11:04:58.580Z,101.25
2023-04-30T11:05:49.461Z,90.00